createdAt,value
2022-10-11T00:01:55.864Z,6.92
2022-10-11T00:04:22.625Z,6.91
2022-10-11T00:06:49.440Z,6.98
2022-10-11T00:09:16.272Z,7.15
2022-10-11T00:11:43.402Z,7.28
2022-10-11T00:14:10.317Z,7.32
2022-10-11T00:16:40.904Z,7.45
2022-10-11T00:19:07.835Z,7.55
2022-10-11T00:21:34.708Z,7.76
2022-10-11T00:24:01.457Z,7.89
2022-10-11T00:26:28.194Z,7.96
2022-10-11T00:28:55.272Z,8.12
2022-10-11T00:31:22.416Z,8.12
2022-10-11T00:33:49.218Z,8.02
2022-10-11T00:36:17.411Z,7.69
2022-10-11T00:38:45.032Z,7.53
2022-10-11T00:41:13.202Z,7.44
2022-10-11T00:43:40.083Z,7.53
2022-10-11T00:46:18.981Z,7.56
2022-10-11T00:48:58.181Z,7.53
2022-10-11T00:51:51.682Z,7.48
2022-10-11T00:54:21.697Z,7.50
2022-10-11T00:56:53.245Z,7.51
2022-10-11T00:59:24.586Z,7.58
2022-10-11T01:01:52.130Z,7.56
2022-10-11T01:04:19.085Z,7.61
2022-10-11T01:06:46.304Z,7.58
2022-10-11T01:09:13.867Z,7.64
2022-10-11T01:11:42.755Z,7.70
2022-10-11T01:14:25.690Z,7.75
2022-10-11T01:16:58.445Z,7.72
2022-10-11T01:19:53.719Z,7.82
2022-10-11T01:22:20.470Z,7.83
2022-10-11T01:25:00.370Z,7.78
2022-10-11T01:27:53.504Z,7.81
2022-10-11T01:30:24.568Z,7.80
2022-10-11T01:32:56.038Z,7.98
2022-10-11T01:35:38.264Z,7.87
2022-10-11T01:38:09.006Z,7.84
2022-10-11T01:40:43.030Z,7.74
2022-10-11T01:43:10.272Z,7.90
2022-10-11T01:45:37.394Z,7.98
2022-10-11T01:48:07.546Z,8.01
2022-10-11T01:50:52.205Z,7.85
2022-10-11T01:53:31.014Z,7.91
2022-10-11T01:56:11.294Z,7.80
2022-10-11T01:58:43.717Z,7.83
2022-10-11T02:01:42.717Z,7.85
2022-10-11T02:04:45.430Z,7.86
2022-10-11T02:07:23.705Z,7.97
2022-10-11T02:10:00.492Z,7.94
2022-10-11T02:12:40.245Z,7.98
2022-10-11T02:15:09.887Z,8.04
2022-10-11T02:17:40.964Z,7.98
2022-10-11T02:20:09.557Z,7.97
2022-10-11T02:22:37.936Z,8.02
2022-10-11T02:25:09.189Z,7.97
2022-10-11T02:27:38.760Z,7.99
2022-10-11T02:30:07.669Z,8.06
2022-10-11T02:32:36.686Z,8.01
2022-10-11T02:35:04.260Z,7.97
2022-10-11T02:37:35.750Z,7.97
2022-10-11T02:40:25.315Z,7.86
2022-10-11T02:43:03.923Z,7.85
2022-10-11T02:45:33.169Z,7.82
2022-10-11T02:48:00.161Z,7.72
2022-10-11T02:50:27.298Z,7.73
2022-10-11T02:52:54.019Z,7.80
2022-10-11T02:55:20.989Z,7.85
2022-10-11T02:57:47.823Z,7.92
2022-10-11T03:00:14.898Z,7.77
2022-10-11T03:02:41.607Z,7.80
2022-10-11T03:05:09.286Z,7.79
2022-10-11T03:07:36.013Z,7.72
2022-10-11T03:10:03.140Z,7.65
2022-10-11T03:12:29.971Z,7.79
2022-10-11T03:14:56.739Z,7.85
2022-10-11T03:17:36.200Z,7.76
2022-10-11T03:20:04.791Z,7.76
2022-10-11T03:22:32.075Z,7.78
2022-10-11T03:25:03.669Z,7.78
2022-10-11T03:27:32.064Z,7.77
2022-10-11T03:29:58.920Z,7.71
2022-10-11T03:32:25.670Z,7.69
2022-10-11T03:34:53.206Z,7.63
2022-10-11T03:37:20.217Z,7.49
2022-10-11T03:39:46.997Z,7.44
2022-10-11T03:42:13.854Z,7.43
2022-10-11T03:44:42.112Z,7.46
2022-10-11T03:47:09.442Z,7.47
2022-10-11T03:49:41.229Z,7.65
2022-10-11T03:52:10.497Z,7.75
2022-10-11T03:54:37.252Z,7.66
2022-10-11T03:57:04.132Z,7.73
2022-10-11T03:59:31.058Z,7.77
2022-10-11T04:01:57.904Z,7.85
2022-10-11T04:04:24.815Z,7.75
2022-10-11T04:06:51.617Z,7.61
2022-10-11T04:09:18.325Z,7.50
2022-10-11T04:11:45.160Z,7.55
2022-10-11T04:14:11.903Z,7.56
2022-10-11T04:16:41.429Z,7.68
2022-10-11T04:19:08.275Z,7.55
2022-10-11T04:21:35.060Z,7.68
2022-10-11T04:24:01.858Z,7.74
2022-10-11T04:26:28.651Z,7.68
2022-10-11T04:28:55.534Z,7.64
2022-10-11T04:31:22.537Z,7.65
2022-10-11T04:33:49.488Z,7.78
2022-10-11T04:36:16.305Z,7.73
2022-10-11T04:38:43.171Z,7.75
2022-10-11T04:41:11.902Z,7.78
2022-10-11T04:43:38.782Z,7.73
2022-10-11T04:46:06.817Z,7.73
2022-10-11T04:48:34.052Z,7.75
2022-10-11T04:51:00.816Z,7.66
2022-10-11T04:53:27.811Z,7.71
2022-10-11T04:56:05.711Z,7.58
2022-10-11T04:58:34.110Z,7.59
2022-10-11T05:01:00.994Z,7.53
2022-10-11T05:03:28.345Z,7.47
2022-10-11T05:05:55.026Z,7.51
2022-10-11T05:08:23.315Z,7.58
2022-10-11T05:11:02.015Z,7.70
2022-10-11T05:13:29.166Z,7.71
2022-10-11T05:15:56.479Z,7.70
2022-10-11T05:18:23.278Z,7.69
2022-10-11T05:20:50.561Z,7.75
2022-10-11T05:23:17.278Z,7.62
2022-10-11T05:25:44.028Z,7.58
2022-10-11T05:28:10.829Z,7.49
2022-10-11T05:30:37.567Z,7.52
2022-10-11T05:33:04.702Z,7.51
2022-10-11T05:35:31.428Z,7.53
2022-10-11T05:37:58.144Z,7.55
2022-10-11T05:40:24.843Z,7.64
2022-10-11T05:42:51.620Z,7.68
2022-10-11T05:45:18.567Z,7.70
2022-10-11T05:47:45.404Z,7.72
2022-10-11T05:50:12.184Z,7.70
2022-10-11T05:52:38.936Z,7.70
2022-10-11T05:55:06.506Z,7.56
2022-10-11T05:57:33.231Z,7.61
2022-10-11T06:00:00.274Z,7.58
2022-10-11T06:02:27.040Z,7.63
2022-10-11T06:04:53.782Z,7.59
2022-10-11T06:07:20.566Z,7.59
2022-10-11T06:09:47.280Z,7.66
2022-10-11T06:12:14.099Z,7.67
2022-10-11T06:14:40.912Z,7.71
2022-10-11T06:17:07.604Z,7.75
2022-10-11T06:19:34.751Z,7.80
2022-10-11T06:22:01.518Z,7.92
2022-10-11T06:24:28.286Z,8.04
2022-10-11T06:26:55.678Z,8.02
2022-10-11T06:29:22.758Z,8.28
2022-10-11T06:31:49.469Z,8.25
2022-10-11T06:34:16.210Z,8.31
2022-10-11T06:36:42.988Z,8.27
2022-10-11T06:39:09.765Z,8.17
2022-10-11T06:41:37.370Z,8.28
2022-10-11T06:44:04.746Z,8.32
2022-10-11T06:46:35.138Z,8.31
2022-10-11T06:49:02.002Z,8.25
2022-10-11T06:51:30.197Z,8.19
2022-10-11T06:53:58.711Z,8.26
2022-10-11T06:56:27.038Z,8.24
2022-10-11T06:58:54.717Z,8.27
2022-10-11T07:01:23.798Z,8.25
2022-10-11T07:03:52.574Z,8.38
2022-10-11T07:06:22.100Z,8.35
2022-10-11T07:08:49.287Z,8.31
2022-10-11T07:11:21.709Z,8.34
2022-10-11T07:13:51.172Z,8.34
2022-10-11T07:16:19.777Z,8.47
2022-10-11T07:18:47.675Z,8.58
2022-10-11T07:21:15.962Z,8.68
2022-10-11T07:23:42.893Z,8.61
2022-10-11T07:26:11.780Z,8.52
2022-10-11T07:28:40.141Z,8.45
2022-10-11T07:31:09.568Z,8.38
2022-10-11T07:33:36.541Z,8.38
2022-10-11T07:36:04.642Z,8.35
2022-10-11T07:38:32.181Z,8.45
2022-10-11T07:40:59.248Z,8.61
2022-10-11T07:43:26.046Z,8.55
2022-10-11T07:45:57.057Z,8.61
2022-10-11T07:48:23.945Z,8.59
2022-10-11T07:50:50.761Z,8.71
2022-10-11T07:53:17.527Z,8.94
2022-10-11T07:55:44.251Z,8.96
2022-10-11T07:58:12.355Z,9.09
2022-10-11T08:00:42.323Z,9.03
2022-10-11T08:03:10.539Z,9.04
2022-10-11T08:05:39.081Z,9.24
2022-10-11T08:08:06.079Z,9.44
2022-10-11T08:10:39.863Z,9.28
2022-10-11T08:13:06.922Z,9.34
2022-10-11T08:15:33.610Z,9.37
2022-10-11T08:18:00.453Z,9.64
2022-10-11T08:20:27.336Z,9.37
2022-10-11T08:22:54.092Z,9.49
2022-10-11T08:25:20.882Z,9.37
2022-10-11T08:27:47.738Z,9.29
2022-10-11T08:30:14.562Z,9.22
2022-10-11T08:32:41.471Z,9.33
2022-10-11T08:35:08.460Z,9.45
2022-10-11T08:37:35.221Z,9.49
2022-10-11T08:40:03.453Z,9.49
2022-10-11T08:42:45.993Z,9.54
2022-10-11T08:45:29.430Z,9.63
2022-10-11T08:48:04.552Z,9.81
2022-10-11T08:50:31.565Z,9.96
2022-10-11T08:53:06.272Z,10.00
2022-10-11T08:55:49.304Z,10.04
2022-10-11T08:58:19.872Z,9.91
2022-10-11T09:00:48.910Z,9.94
2022-10-11T09:03:22.210Z,9.93
2022-10-11T09:05:53.781Z,10.00
2022-10-11T09:08:50.666Z,10.19
2022-10-11T09:11:39.179Z,10.26
2022-10-11T09:14:24.292Z,10.15
2022-10-11T09:17:33.879Z,10.43
2022-10-11T09:20:15.538Z,10.27
2022-10-11T09:23:04.362Z,10.50
2022-10-11T09:25:35.352Z,10.52
2022-10-11T09:28:08.273Z,10.59
2022-10-11T09:30:38.448Z,10.69
2022-10-11T09:33:12.525Z,10.76
2022-10-11T09:35:43.222Z,10.94
2022-10-11T09:38:25.514Z,10.94
2022-10-11T09:40:55.286Z,11.08
2022-10-11T09:43:22.252Z,11.07
2022-10-11T09:45:49.762Z,11.34
2022-10-11T09:48:41.667Z,11.23
2022-10-11T09:51:15.136Z,11.39
2022-10-11T09:54:01.640Z,11.20
2022-10-11T09:56:31.184Z,11.38
2022-10-11T09:59:09.285Z,11.40
2022-10-11T10:01:36.373Z,11.42
2022-10-11T10:04:12.500Z,11.51
2022-10-11T10:06:40.366Z,11.64
2022-10-11T10:09:28.061Z,11.50
2022-10-11T10:11:56.310Z,11.43
2022-10-11T10:14:28.730Z,11.38
2022-10-11T10:17:19.038Z,11.52
2022-10-11T10:19:53.716Z,11.44
2022-10-11T10:22:22.539Z,11.48
2022-10-11T10:24:50.713Z,11.53
2022-10-11T10:27:21.716Z,11.64
2022-10-11T10:30:24.888Z,11.74
2022-10-11T10:33:11.707Z,11.65
2022-10-11T10:35:43.310Z,11.55
2022-10-11T10:38:16.433Z,11.74
2022-10-11T10:40:45.736Z,11.79
2022-10-11T10:43:18.431Z,11.96
2022-10-11T10:46:04.097Z,12.01
2022-10-11T10:52:17.246Z,11.89
2022-10-11T10:54:56.334Z,12.16
2022-10-11T10:57:49.141Z,12.19
2022-10-11T11:00:19.151Z,12.12
2022-10-11T11:02:59.061Z,12.25
2022-10-11T11:05:44.563Z,12.36
2022-10-11T11:08:29.411Z,12.22
2022-10-11T11:11:03.256Z,12.19
2022-10-11T11:13:50.114Z,12.14
2022-10-11T11:16:31.912Z,12.27
2022-10-11T11:19:08.231Z,12.43
2022-10-11T11:21:48.819Z,12.55
2022-10-11T11:24:24.593Z,12.55
2022-10-11T11:27:04.418Z,12.64
2022-10-11T11:29:56.353Z,12.90
2022-10-11T11:32:28.933Z,12.95
2022-10-11T11:35:11.192Z,12.96
2022-10-11T11:37:41.674Z,13.01
2022-10-11T11:40:25.652Z,13.03
2022-10-11T11:42:55.892Z,12.82
2022-10-11T11:45:55.041Z,12.77
2022-10-11T11:48:26.484Z,12.81
2022-10-11T11:51:04.340Z,12.49
2022-10-11T11:54:06.154Z,12.38
2022-10-11T11:56:45.125Z,12.22
2022-10-11T11:59:20.677Z,12.26
2022-10-11T12:01:50.602Z,12.32
2022-10-11T12:04:29.041Z,12.20
2022-10-11T12:07:16.829Z,12.18
2022-10-11T12:09:50.739Z,12.00
2022-10-11T12:12:34.059Z,11.98
2022-10-11T12:15:10.112Z,11.96
2022-10-11T12:18:15.557Z,12.00
2022-10-11T12:20:43.569Z,12.12
2022-10-11T12:23:29.564Z,12.09
2022-10-11T12:26:29.897Z,12.01
2022-10-11T12:29:17.191Z,12.11
2022-10-11T12:31:50.032Z,12.22
2022-10-11T12:37:18.147Z,12.37
2022-10-11T12:39:56.018Z,12.25
2022-10-11T12:42:31.020Z,12.25
2022-10-11T12:45:13.269Z,12.26
2022-10-11T12:48:01.528Z,12.32
2022-10-11T12:50:34.749Z,12.23
2022-10-11T12:53:10.262Z,12.40
2022-10-11T12:55:57.286Z,12.64
2022-10-11T12:58:25.244Z,12.62
2022-10-11T13:00:51.990Z,12.69
2022-10-11T13:03:33.468Z,12.77
2022-10-11T13:06:01.838Z,12.65
2022-10-11T13:08:35.247Z,12.36
2022-10-11T13:11:05.165Z,12.39
2022-10-11T13:13:35.222Z,12.51
2022-10-11T13:16:13.096Z,12.44
2022-10-11T13:18:54.346Z,12.54
2022-10-11T13:21:36.359Z,12.64
2022-10-11T13:24:10.759Z,12.61
2022-10-11T13:26:37.809Z,12.60
2022-10-11T13:29:15.271Z,12.61
2022-10-11T13:31:42.421Z,12.60
2022-10-11T13:34:11.257Z,12.72
2022-10-11T13:36:38.127Z,12.67
2022-10-11T13:39:05.109Z,12.66
2022-10-11T13:41:32.570Z,12.67
2022-10-11T13:43:59.955Z,12.58
2022-10-11T13:46:28.410Z,12.64
2022-10-11T13:49:06.884Z,12.64
2022-10-11T13:51:37.737Z,12.74
2022-10-11T13:54:05.700Z,12.61
2022-10-11T13:56:35.827Z,12.84
2022-10-11T13:59:02.844Z,12.84
2022-10-11T14:01:41.395Z,12.91
2022-10-11T14:04:11.245Z,12.94
2022-10-11T14:06:44.968Z,13.09
2022-10-11T14:09:43.150Z,13.09
2022-10-11T14:12:44.445Z,13.16
2022-10-11T14:15:28.599Z,13.44
2022-10-11T14:17:55.440Z,13.40
2022-10-11T14:20:34.804Z,13.56
2022-10-11T14:23:01.648Z,13.70
2022-10-11T14:25:28.393Z,13.84
2022-10-11T14:27:55.436Z,13.73
2022-10-11T14:30:27.412Z,13.98
2022-10-11T14:32:55.556Z,14.38
2022-10-11T14:35:30.164Z,14.16
2022-10-11T14:37:56.990Z,13.88
2022-10-11T14:40:29.939Z,13.72
2022-10-11T14:42:57.033Z,13.80
2022-10-11T14:45:23.951Z,13.87
2022-10-11T14:47:51.061Z,13.93
2022-10-11T14:50:33.127Z,13.87
2022-10-11T14:53:00.117Z,13.59
2022-10-11T14:55:27.041Z,13.73
2022-10-11T14:57:53.820Z,13.80
2022-10-11T15:00:23.375Z,13.71
2022-10-11T15:02:52.719Z,13.46
2022-10-11T15:05:20.777Z,13.40
2022-10-11T15:07:47.750Z,13.56
2022-10-11T15:10:17.581Z,13.41
2022-10-11T15:12:44.644Z,13.48
2022-10-11T15:15:16.768Z,13.50
2022-10-11T15:17:43.701Z,13.49
2022-10-11T15:20:27.421Z,13.63
2022-10-11T15:22:55.430Z,13.57
2022-10-11T15:25:23.392Z,13.76
2022-10-11T15:27:51.133Z,13.70
2022-10-11T15:30:23.603Z,13.71
2022-10-11T15:32:51.891Z,13.51
2022-10-11T15:35:19.825Z,13.33
2022-10-11T15:37:47.218Z,13.26
2022-10-11T15:40:19.958Z,13.15
2022-10-11T15:42:47.434Z,13.16
2022-10-11T15:45:14.579Z,13.06
2022-10-11T15:47:41.474Z,12.88
2022-10-11T15:50:33.731Z,12.84
2022-10-11T15:53:02.863Z,12.82
2022-10-11T15:55:30.362Z,12.75
2022-10-11T15:57:57.396Z,12.71
2022-10-11T16:00:25.108Z,12.48
2022-10-11T16:02:52.767Z,12.43
2022-10-11T16:05:26.979Z,12.29
2022-10-11T16:07:54.313Z,12.27
2022-10-11T16:10:21.744Z,12.26
2022-10-11T16:12:48.827Z,12.17
2022-10-11T16:15:15.944Z,12.04
2022-10-11T16:17:42.741Z,12.14
2022-10-11T16:20:09.812Z,12.09
2022-10-11T16:22:36.782Z,12.06
2022-10-11T16:25:04.523Z,12.12
2022-10-11T16:27:31.486Z,12.18
2022-10-11T16:29:58.613Z,12.06
2022-10-11T16:32:25.535Z,12.08
2022-10-11T16:34:52.338Z,12.05
2022-10-11T16:37:19.292Z,12.05
2022-10-11T16:39:46.670Z,12.03
2022-10-11T16:42:13.450Z,12.01
2022-10-11T16:44:40.270Z,11.82
2022-10-11T16:47:07.340Z,11.83
2022-10-11T16:49:34.700Z,11.77
2022-10-11T16:52:03.890Z,11.83
2022-10-11T16:54:31.638Z,11.72
2022-10-11T16:56:59.028Z,11.56
2022-10-11T16:59:27.364Z,11.72
2022-10-11T17:01:54.373Z,11.65
2022-10-11T17:04:21.739Z,11.64
2022-10-11T17:06:48.614Z,11.43
2022-10-11T17:09:16.028Z,11.43
2022-10-11T17:11:43.635Z,11.37
2022-10-11T17:14:12.321Z,11.38
2022-10-11T17:16:39.438Z,11.40
2022-10-11T17:19:12.973Z,11.38
2022-10-11T17:21:40.022Z,11.29
2022-10-11T17:24:07.249Z,11.30
2022-10-11T17:26:34.738Z,11.26
2022-10-11T17:29:02.240Z,11.28
2022-10-11T17:31:30.105Z,11.20
2022-10-11T17:34:00.682Z,11.23
2022-10-11T17:36:30.647Z,11.27
2022-10-11T17:38:58.090Z,11.12
2022-10-11T17:41:29.462Z,11.07
2022-10-11T17:43:59.308Z,11.01
2022-10-11T17:46:28.120Z,11.11
2022-10-11T17:48:55.697Z,11.11
2022-10-11T17:51:23.012Z,11.07
2022-10-11T17:53:51.266Z,11.03
2022-10-11T17:56:25.421Z,11.10
2022-10-11T17:58:56.320Z,11.10
2022-10-11T18:01:26.339Z,11.07
2022-10-11T18:03:55.324Z,11.14
2022-10-11T18:06:22.530Z,11.11
2022-10-11T18:08:49.475Z,10.99
2022-10-11T18:11:18.538Z,10.96
2022-10-11T18:13:48.667Z,11.15
2022-10-11T18:16:17.129Z,11.06
2022-10-11T18:18:44.471Z,11.07
2022-10-11T18:21:11.780Z,10.97
2022-10-11T18:23:38.656Z,11.06
2022-10-11T18:26:13.420Z,11.01
2022-10-11T18:28:41.123Z,10.90
2022-10-11T18:34:15.920Z,10.87
2022-10-11T18:36:42.939Z,10.91
2022-10-11T18:39:13.464Z,10.84
2022-10-11T18:41:44.249Z,10.90
2022-10-11T18:44:14.131Z,10.85
2022-10-11T18:46:41.535Z,10.92
2022-10-11T18:49:08.704Z,10.77
2022-10-11T18:51:40.472Z,10.74
2022-10-11T18:54:08.476Z,10.74
2022-10-11T18:56:37.062Z,10.66
2022-10-11T18:59:04.692Z,10.81
2022-10-11T19:01:38.336Z,10.73
2022-10-11T19:04:06.955Z,10.63
2022-10-11T19:06:37.305Z,10.63
2022-10-11T19:09:12.177Z,10.61
2022-10-11T19:11:39.257Z,10.57
2022-10-11T19:14:11.694Z,10.52
2022-10-11T19:16:49.527Z,10.42
2022-10-11T19:19:18.699Z,10.52
2022-10-11T19:21:48.109Z,10.45
2022-10-11T19:24:20.428Z,10.47
2022-10-11T19:26:47.542Z,10.43
2022-10-11T19:29:21.534Z,10.52
2022-10-11T19:31:59.797Z,10.47
2022-10-11T19:34:27.829Z,10.37
2022-10-11T19:36:56.523Z,10.38
2022-10-11T19:39:24.594Z,10.43
2022-10-11T19:41:51.515Z,10.45
2022-10-11T19:44:18.548Z,10.44
2022-10-11T19:46:51.659Z,10.52
2022-10-11T19:49:21.597Z,10.52
2022-10-11T19:51:48.498Z,10.47
2022-10-11T19:54:15.668Z,10.47
2022-10-11T19:56:42.931Z,10.44
2022-10-11T19:59:10.537Z,10.58
2022-10-11T20:01:37.588Z,10.56
2022-10-11T20:04:22.686Z,10.46
2022-10-11T20:06:56.965Z,10.43
2022-10-11T20:09:29.646Z,10.43
2022-10-11T20:11:57.323Z,10.38
2022-10-11T20:14:24.470Z,10.50
2022-10-11T20:16:51.432Z,10.45
2022-10-11T20:19:18.745Z,10.43
2022-10-11T20:21:45.611Z,10.44
2022-10-11T20:24:12.691Z,10.45
2022-10-11T20:26:39.603Z,10.42
2022-10-11T20:29:06.554Z,10.47
2022-10-11T20:31:34.610Z,10.53
2022-10-11T20:34:04.266Z,10.48
2022-10-11T20:36:31.502Z,10.45
2022-10-11T20:38:59.270Z,10.43
2022-10-11T20:41:34.194Z,10.44
2022-10-11T20:44:01.840Z,10.47
2022-10-11T20:46:31.369Z,10.47
2022-10-11T20:49:03.540Z,10.46
2022-10-11T20:51:31.776Z,10.47
2022-10-11T20:53:59.340Z,10.42
2022-10-11T20:56:26.773Z,10.41
2022-10-11T20:58:54.920Z,10.53
2022-10-11T21:01:24.271Z,10.51
2022-10-11T21:03:51.098Z,10.46
2022-10-11T21:06:19.249Z,10.40
2022-10-11T21:08:46.095Z,10.44
2022-10-11T21:11:12.897Z,10.47
2022-10-11T21:13:39.596Z,10.36
2022-10-11T21:16:14.641Z,10.50
2022-10-11T21:18:41.823Z,10.44
2022-10-11T21:21:10.921Z,10.46
2022-10-11T21:23:38.227Z,10.65
2022-10-11T21:26:07.252Z,10.57
2022-10-11T21:28:34.422Z,10.51
2022-10-11T21:31:12.563Z,10.52
2022-10-11T21:33:40.862Z,10.44
2022-10-11T21:36:21.545Z,10.38
2022-10-11T21:38:49.909Z,10.39
2022-10-11T21:41:25.556Z,10.39
2022-10-11T21:43:53.148Z,10.51
2022-10-11T21:46:19.810Z,10.50
2022-10-11T21:48:47.292Z,10.48
2022-10-11T21:51:16.252Z,10.44
2022-10-11T21:53:42.998Z,10.30
2022-10-11T21:56:09.801Z,10.42
2022-10-11T21:58:36.923Z,10.24
2022-10-11T22:01:04.730Z,10.29
2022-10-11T22:03:32.237Z,10.36
2022-10-11T22:06:02.829Z,10.43
2022-10-11T22:08:30.586Z,10.23
2022-10-11T22:11:00.315Z,10.36
2022-10-11T22:13:29.659Z,10.38
2022-10-11T22:15:57.176Z,10.39
2022-10-11T22:18:25.228Z,10.38
2022-10-11T22:20:52.482Z,10.37
2022-10-11T22:23:19.315Z,10.36
2022-10-11T22:25:46.416Z,10.20
2022-10-11T22:28:13.425Z,10.22
2022-10-11T22:30:40.337Z,10.33
2022-10-11T22:33:07.143Z,10.31
2022-10-11T22:35:37.547Z,10.27
2022-10-11T22:38:06.196Z,10.24
2022-10-11T22:40:33.118Z,10.26
2022-10-11T22:42:59.844Z,10.16
2022-10-11T22:45:26.596Z,10.13
2022-10-11T22:47:53.316Z,10.24
2022-10-11T22:50:20.045Z,10.18
2022-10-11T22:52:46.775Z,10.33
2022-10-11T22:55:18.973Z,10.26
2022-10-11T22:57:46.792Z,10.24
2022-10-11T23:00:13.852Z,10.37
2022-10-11T23:02:42.296Z,10.31
2022-10-11T23:05:09.036Z,10.38
2022-10-11T23:07:36.095Z,10.34
2022-10-11T23:10:03.862Z,10.24
2022-10-11T23:12:30.782Z,10.28
2022-10-11T23:14:57.987Z,10.36
2022-10-11T23:17:24.900Z,10.26
2022-10-11T23:19:52.760Z,10.33
2022-10-11T23:22:19.545Z,10.29
2022-10-11T23:24:46.291Z,10.27
2022-10-11T23:27:13.074Z,10.21
2022-10-11T23:29:41.050Z,10.29
2022-10-11T23:32:08.856Z,10.37
2022-10-11T23:34:35.892Z,10.37
2022-10-11T23:37:03.093Z,10.33
2022-10-11T23:39:29.898Z,10.25
2022-10-11T23:41:57.192Z,10.16
2022-10-11T23:44:24.004Z,10.34
2022-10-11T23:46:50.813Z,10.19
2022-10-11T23:49:17.505Z,10.10
2022-10-11T23:51:44.289Z,10.24
2022-10-11T23:54:11.069Z,10.29
2022-10-11T23:56:38.157Z,10.28
2022-10-11T23:59:04.873Z,10.22
